Garnett, SC (29922)

3:49 PM EDT on May 24, 2015 (GMT -0400)
1 Mi. West of Great Swamp Baptist Church | | Change Station
CLOSE
Current Station
Personal Weather Station
Location: Ridgeland, SC
Elevation: 59 ft
Nearby Weather Stations

Elev 59 ft 32.50 °N, 81.04 °W | Updated 8 seconds ago

Mostly Cloudy
Mostly Cloudy
83.8 °F
Feels Like 85 °F
N
3.1
Wind Variable Wind from ENE
Gusts 6.0 mph

Today
High -- | Low -- °F
--% Chance of Precip.
Yesterday
High -- | Low -- °F
Precip. -- in
6:21 AM 8:22 PM
Waxing Crescent, 41% visible
Pressure 30.30 in
Visibility 10.0 miles
Clouds Scattered Clouds 5500 ft
Heat Index 85 °F
Dew Point 64 °F
Humidity 52%
Rainfall 0.00 in
Snow Depth Not available.
UV 8 out of 12
Pollen 6.70 out of 12
Air Quality Not available.
Flu Activity Local Activity
METAR KJYL 241935Z AUTO 13008KT 10SM SCT055 29/16 A3030 RMK AO2 T02930164

More Conditions Fewer Conditions

Pressure 30.30 in
Visibility 10.0 miles
Clouds Scattered Clouds 5500 ft
Heat Index 85 °F
Dew Point 64 °F
Humidity 52%
Rainfall 0.00 in
Snow Depth Not available.
UV 8 out of 12
Pollen 6.70 out of 12
Air Quality Not available.
Flu Activity Local Activity
METAR KJYL 241935Z AUTO 13008KT 10SM SCT055 29/16 A3030 RMK AO2 T02930164

More Conditions Fewer Conditions

10-Day Weather Forecast

Almanac

Astronomy

May. 24, 2015 Rise Set
Actual Time
Civil Twilight
Nautical Twilight
Astronomical Twilight
Moon
Length of Visible Light
Length of Day
Tomorrow will be .
, % of the Moon is Illuminated

Today's Extremes

State Highs State Lows

Community

WunderPhotos

Upload Photos

1,823,844 photos uploaded!

WunderBlogs® & News

Nearby

Air Quality

  Air Quality AQ Index Pollutant
Not available.

Snow Depth

Station Depth Elevation

Earthquake Activity

City Distance Mag. Time & Date
Minimum magnitude displayed is 2.5.

Coastal Water Temperatures

Place Temperature

Stations

Nearby Weather Stations

Station Location Temp. Windchill Dew Point Humidity Wind Precip. Elev Updated Type